sensor_id;sensor_type;location;lat;lon;timestamp;P1;durP1;ratioP1;P2;durP2;ratioP2
4794;SDS011;2411;47.060;15.064;2023-03-31T00:00:50;1.30;;;1.20;;
4794;SDS011;2411;47.060;15.064;2023-03-31T00:03:19;1.50;;;1.40;;
4794;SDS011;2411;47.060;15.064;2023-03-31T00:05:56;1.20;;;1.20;;
4794;SDS011;2411;47.060;15.064;2023-03-31T00:08:25;1.40;;;1.30;;
4794;SDS011;2411;47.060;15.064;2023-03-31T00:10:59;1.50;;;1.40;;
4794;SDS011;2411;47.060;15.064;2023-03-31T00:13:27;2.40;;;1.30;;
4794;SDS011;2411;47.060;15.064;2023-03-31T00:15:59;1.87;;;1.67;;
4794;SDS011;2411;47.060;15.064;2023-03-31T00:18:32;1.87;;;1.67;;
4794;SDS011;2411;47.060;15.064;2023-03-31T00:23:40;7.93;;;1.73;;
4794;SDS011;2411;47.060;15.064;2023-03-31T00:26:07;1.10;;;1.10;;
4794;SDS011;2411;47.060;15.064;2023-03-31T00:28:34;2.97;;;2.03;;
4794;SDS011;2411;47.060;15.064;2023-03-31T00:31:02;2.83;;;1.50;;
4794;SDS011;2411;47.060;15.064;2023-03-31T00:33:30;1.73;;;1.63;;
4794;SDS011;2411;47.060;15.064;2023-03-31T00:35:57;1.53;;;1.43;;
4794;SDS011;2411;47.060;15.064;2023-03-31T00:38:32;1.40;;;1.30;;
4794;SDS011;2411;47.060;15.064;2023-03-31T00:41:00;1.30;;;1.27;;
4794;SDS011;2411;47.060;15.064;2023-03-31T00:43:35;2.30;;;1.50;;
4794;SDS011;2411;47.060;15.064;2023-03-31T00:48:57;1.83;;;1.73;;
4794;SDS011;2411;47.060;15.064;2023-03-31T00:51:28;1.67;;;1.57;;
4794;SDS011;2411;47.060;15.064;2023-03-31T00:54:00;2.30;;;1.77;;
4794;SDS011;2411;47.060;15.064;2023-03-31T00:56:32;1.53;;;1.43;;
4794;SDS011;2411;47.060;15.064;2023-03-31T00:59:05;1.67;;;1.57;;
4794;SDS011;2411;47.060;15.064;2023-03-31T01:01:36;1.87;;;1.43;;
4794;SDS011;2411;47.060;15.064;2023-03-31T01:04:08;1.97;;;1.73;;
4794;SDS011;2411;47.060;15.064;2023-03-31T01:06:41;3.00;;;1.63;;
4794;SDS011;2411;47.060;15.064;2023-03-31T01:09:17;1.50;;;1.40;;
4794;SDS011;2411;47.060;15.064;2023-03-31T01:11:45;1.30;;;1.20;;
4794;SDS011;2411;47.060;15.064;2023-03-31T01:14:14;1.40;;;1.30;;
4794;SDS011;2411;47.060;15.064;2023-03-31T01:16:41;4.53;;;1.67;;
4794;SDS011;2411;47.060;15.064;2023-03-31T01:19:10;2.73;;;1.47;;
4794;SDS011;2411;47.060;15.064;2023-03-31T01:21:54;1.43;;;1.27;;
4794;SDS011;2411;47.060;15.064;2023-03-31T01:25:05;1.50;;;1.40;;
4794;SDS011;2411;47.060;15.064;2023-03-31T01:42:09;1.40;;;1.40;;
4794;SDS011;2411;47.060;15.064;2023-03-31T01:45:00;2.00;;;1.90;;
4794;SDS011;2411;47.060;15.064;2023-03-31T01:47:57;3.43;;;1.50;;
4794;SDS011;2411;47.060;15.064;2023-03-31T01:50:56;1.53;;;1.47;;
4794;SDS011;2411;47.060;15.064;2023-03-31T01:56:32;1.63;;;1.57;;
4794;SDS011;2411;47.060;15.064;2023-03-31T01:59:09;1.80;;;1.70;;
4794;SDS011;2411;47.060;15.064;2023-03-31T02:04:29;2.03;;;1.83;;
4794;SDS011;2411;47.060;15.064;2023-03-31T02:07:03;1.70;;;1.60;;
4794;SDS011;2411;47.060;15.064;2023-03-31T02:09:38;2.10;;;2.00;;
4794;SDS011;2411;47.060;15.064;2023-03-31T02:12:10;2.13;;;2.03;;
4794;SDS011;2411;47.060;15.064;2023-03-31T02:14:38;2.30;;;2.07;;
4794;SDS011;2411;47.060;15.064;2023-03-31T02:17:14;2.30;;;1.63;;
4794;SDS011;2411;47.060;15.064;2023-03-31T02:19:44;1.80;;;1.70;;
4794;SDS011;2411;47.060;15.064;2023-03-31T02:22:16;2.40;;;1.90;;
4794;SDS011;2411;47.060;15.064;2023-03-31T02:24:45;1.20;;;1.20;;
4794;SDS011;2411;47.060;15.064;2023-03-31T02:27:34;1.70;;;1.60;;
4794;SDS011;2411;47.060;15.064;2023-03-31T02:30:05;1.77;;;1.67;;
4794;SDS011;2411;47.060;15.064;2023-03-31T02:32:41;1.93;;;1.83;;
4794;SDS011;2411;47.060;15.064;2023-03-31T02:35:14;2.13;;;1.50;;
4794;SDS011;2411;47.060;15.064;2023-03-31T02:37:43;1.90;;;1.80;;
4794;SDS011;2411;47.060;15.064;2023-03-31T02:40:11;1.67;;;1.60;;
4794;SDS011;2411;47.060;15.064;2023-03-31T02:42:43;1.63;;;1.63;;
4794;SDS011;2411;47.060;15.064;2023-03-31T02:48:24;3.17;;;1.80;;
4794;SDS011;2411;47.060;15.064;2023-03-31T02:51:07;1.70;;;1.60;;
4794;SDS011;2411;47.060;15.064;2023-03-31T03:02:51;2.40;;;1.63;;
4794;SDS011;2411;47.060;15.064;2023-03-31T03:05:40;3.20;;;1.90;;
4794;SDS011;2411;47.060;15.064;2023-03-31T03:08:22;2.13;;;1.87;;
4794;SDS011;2411;47.060;15.064;2023-03-31T03:13:44;3.40;;;1.63;;
4794;SDS011;2411;47.060;15.064;2023-03-31T03:16:18;1.70;;;1.60;;
4794;SDS011;2411;47.060;15.064;2023-03-31T03:19:03;1.70;;;1.60;;
4794;SDS011;2411;47.060;15.064;2023-03-31T03:21:31;2.37;;;1.93;;
4794;SDS011;2411;47.060;15.064;2023-03-31T03:23:59;4.00;;;1.97;;
4794;SDS011;2411;47.060;15.064;2023-03-31T03:26:27;1.63;;;1.47;;
4794;SDS011;2411;47.060;15.064;2023-03-31T03:28:55;1.90;;;1.80;;
4794;SDS011;2411;47.060;15.064;2023-03-31T03:31:24;2.30;;;1.97;;
4794;SDS011;2411;47.060;15.064;2023-03-31T03:33:52;2.20;;;2.10;;
4794;SDS011;2411;47.060;15.064;2023-03-31T03:36:19;2.13;;;1.93;;
4794;SDS011;2411;47.060;15.064;2023-03-31T03:38:47;2.40;;;2.20;;
4794;SDS011;2411;47.060;15.064;2023-03-31T03:41:14;2.23;;;1.63;;
4794;SDS011;2411;47.060;15.064;2023-03-31T03:43:41;2.40;;;2.00;;
4794;SDS011;2411;47.060;15.064;2023-03-31T03:46:08;1.80;;;1.70;;
4794;SDS011;2411;47.060;15.064;2023-03-31T03:48:36;2.00;;;1.90;;
4794;SDS011;2411;47.060;15.064;2023-03-31T03:51:03;3.43;;;2.60;;
4794;SDS011;2411;47.060;15.064;2023-03-31T03:53:32;2.20;;;1.80;;
4794;SDS011;2411;47.060;15.064;2023-03-31T03:55:59;2.30;;;2.10;;
4794;SDS011;2411;47.060;15.064;2023-03-31T03:58:27;2.60;;;2.40;;
4794;SDS011;2411;47.060;15.064;2023-03-31T04:00:54;2.37;;;2.23;;
4794;SDS011;2411;47.060;15.064;2023-03-31T04:03:22;2.60;;;2.40;;
4794;SDS011;2411;47.060;15.064;2023-03-31T04:05:50;2.70;;;2.20;;
4794;SDS011;2411;47.060;15.064;2023-03-31T04:08:17;4.43;;;2.10;;
4794;SDS011;2411;47.060;15.064;2023-03-31T04:10:45;2.10;;;1.90;;
4794;SDS011;2411;47.060;15.064;2023-03-31T04:13:15;1.87;;;1.60;;
4794;SDS011;2411;47.060;15.064;2023-03-31T04:15:43;2.07;;;1.97;;
4794;SDS011;2411;47.060;15.064;2023-03-31T04:18:11;1.67;;;1.57;;
4794;SDS011;2411;47.060;15.064;2023-03-31T04:20:49;3.20;;;2.30;;
4794;SDS011;2411;47.060;15.064;2023-03-31T04:23:32;1.50;;;1.40;;
4794;SDS011;2411;47.060;15.064;2023-03-31T04:26:03;4.90;;;1.60;;
4794;SDS011;2411;47.060;15.064;2023-03-31T04:28:35;3.40;;;1.93;;
4794;SDS011;2411;47.060;15.064;2023-03-31T04:31:03;3.23;;;1.73;;
4794;SDS011;2411;47.060;15.064;2023-03-31T04:33:34;2.20;;;2.10;;
4794;SDS011;2411;47.060;15.064;2023-03-31T04:36:05;2.10;;;1.83;;
4794;SDS011;2411;47.060;15.064;2023-03-31T04:38:46;2.47;;;2.17;;
4794;SDS011;2411;47.060;15.064;2023-03-31T04:41:17;5.70;;;2.13;;
4794;SDS011;2411;47.060;15.064;2023-03-31T04:43:44;5.33;;;2.10;;
4794;SDS011;2411;47.060;15.064;2023-03-31T04:46:11;3.90;;;2.20;;
4794;SDS011;2411;47.060;15.064;2023-03-31T04:48:38;2.70;;;2.17;;
4794;SDS011;2411;47.060;15.064;2023-03-31T04:51:05;2.20;;;2.10;;
4794;SDS011;2411;47.060;15.064;2023-03-31T04:53:34;3.70;;;1.97;;
4794;SDS011;2411;47.060;15.064;2023-03-31T04:56:01;4.00;;;2.73;;
4794;SDS011;2411;47.060;15.064;2023-03-31T04:58:29;4.07;;;2.40;;
4794;SDS011;2411;47.060;15.064;2023-03-31T05:00:56;3.20;;;2.73;;
4794;SDS011;2411;47.060;15.064;2023-03-31T05:03:24;3.43;;;3.03;;
4794;SDS011;2411;47.060;15.064;2023-03-31T05:05:52;5.63;;;3.47;;
4794;SDS011;2411;47.060;15.064;2023-03-31T05:08:19;6.83;;;4.03;;
4794;SDS011;2411;47.060;15.064;2023-03-31T05:10:47;7.10;;;4.50;;
4794;SDS011;2411;47.060;15.064;2023-03-31T05:13:14;9.73;;;5.00;;
4794;SDS011;2411;47.060;15.064;2023-03-31T05:15:42;4.90;;;3.83;;
4794;SDS011;2411;47.060;15.064;2023-03-31T05:18:10;6.83;;;4.33;;
4794;SDS011;2411;47.060;15.064;2023-03-31T05:20:38;13.63;;;4.53;;
4794;SDS011;2411;47.060;15.064;2023-03-31T05:23:05;6.10;;;3.80;;
4794;SDS011;2411;47.060;15.064;2023-03-31T05:25:32;7.90;;;4.57;;
4794;SDS011;2411;47.060;15.064;2023-03-31T05:28:00;4.60;;;4.10;;
4794;SDS011;2411;47.060;15.064;2023-03-31T05:30:27;10.33;;;3.90;;
4794;SDS011;2411;47.060;15.064;2023-03-31T05:32:55;4.10;;;3.60;;
4794;SDS011;2411;47.060;15.064;2023-03-31T05:35:23;10.30;;;4.67;;
4794;SDS011;2411;47.060;15.064;2023-03-31T05:37:50;14.13;;;4.63;;
4794;SDS011;2411;47.060;15.064;2023-03-31T05:40:17;6.43;;;3.83;;
4794;SDS011;2411;47.060;15.064;2023-03-31T05:42:44;7.53;;;6.07;;
4794;SDS011;2411;47.060;15.064;2023-03-31T05:45:11;4.03;;;3.30;;
4794;SDS011;2411;47.060;15.064;2023-03-31T05:47:39;6.70;;;3.70;;
4794;SDS011;2411;47.060;15.064;2023-03-31T05:50:06;4.07;;;3.70;;
4794;SDS011;2411;47.060;15.064;2023-03-31T05:52:35;7.17;;;4.13;;
4794;SDS011;2411;47.060;15.064;2023-03-31T05:55:03;3.90;;;2.80;;
4794;SDS011;2411;47.060;15.064;2023-03-31T05:57:30;5.40;;;3.17;;
4794;SDS011;2411;47.060;15.064;2023-03-31T05:59:57;9.37;;;3.90;;
4794;SDS011;2411;47.060;15.064;2023-03-31T06:02:25;4.70;;;3.63;;
4794;SDS011;2411;47.060;15.064;2023-03-31T06:04:52;7.33;;;2.57;;
4794;SDS011;2411;47.060;15.064;2023-03-31T06:07:19;4.43;;;3.47;;
4794;SDS011;2411;47.060;15.064;2023-03-31T06:09:50;8.63;;;3.37;;
4794;SDS011;2411;47.060;15.064;2023-03-31T06:12:17;6.30;;;3.80;;
4794;SDS011;2411;47.060;15.064;2023-03-31T06:14:45;4.93;;;3.47;;
4794;SDS011;2411;47.060;15.064;2023-03-31T06:17:12;4.03;;;2.97;;
4794;SDS011;2411;47.060;15.064;2023-03-31T06:19:39;4.57;;;3.47;;
4794;SDS011;2411;47.060;15.064;2023-03-31T06:22:06;6.07;;;3.10;;
4794;SDS011;2411;47.060;15.064;2023-03-31T06:24:33;3.57;;;2.40;;
4794;SDS011;2411;47.060;15.064;2023-03-31T06:27:01;2.90;;;2.67;;
4794;SDS011;2411;47.060;15.064;2023-03-31T06:29:29;5.30;;;2.87;;
4794;SDS011;2411;47.060;15.064;2023-03-31T06:31:56;10.37;;;3.50;;
4794;SDS011;2411;47.060;15.064;2023-03-31T06:34:24;6.03;;;2.97;;
4794;SDS011;2411;47.060;15.064;2023-03-31T06:36:52;3.80;;;2.73;;
4794;SDS011;2411;47.060;15.064;2023-03-31T06:39:19;3.40;;;2.50;;
4794;SDS011;2411;47.060;15.064;2023-03-31T06:41:46;7.13;;;3.00;;
4794;SDS011;2411;47.060;15.064;2023-03-31T06:44:13;6.90;;;2.60;;
4794;SDS011;2411;47.060;15.064;2023-03-31T06:46:42;4.67;;;3.20;;
4794;SDS011;2411;47.060;15.064;2023-03-31T06:49:09;3.90;;;3.00;;
4794;SDS011;2411;47.060;15.064;2023-03-31T06:51:36;2.87;;;2.67;;
4794;SDS011;2411;47.060;15.064;2023-03-31T06:54:04;6.07;;;3.40;;
4794;SDS011;2411;47.060;15.064;2023-03-31T06:56:31;5.17;;;2.67;;
4794;SDS011;2411;47.060;15.064;2023-03-31T06:58:59;3.67;;;2.73;;
4794;SDS011;2411;47.060;15.064;2023-03-31T07:01:26;5.27;;;2.87;;
4794;SDS011;2411;47.060;15.064;2023-03-31T07:03:53;5.20;;;3.27;;
4794;SDS011;2411;47.060;15.064;2023-03-31T07:06:20;7.13;;;3.50;;
4794;SDS011;2411;47.060;15.064;2023-03-31T07:08:47;7.50;;;2.73;;
4794;SDS011;2411;47.060;15.064;2023-03-31T07:11:15;4.50;;;2.87;;
4794;SDS011;2411;47.060;15.064;2023-03-31T07:13:42;3.67;;;2.20;;
4794;SDS011;2411;47.060;15.064;2023-03-31T07:16:09;3.13;;;2.40;;
4794;SDS011;2411;47.060;15.064;2023-03-31T07:18:39;7.83;;;2.33;;
4794;SDS011;2411;47.060;15.064;2023-03-31T07:21:07;3.47;;;2.43;;
4794;SDS011;2411;47.060;15.064;2023-03-31T07:23:36;1.97;;;1.87;;
4794;SDS011;2411;47.060;15.064;2023-03-31T07:26:04;1.80;;;1.70;;
4794;SDS011;2411;47.060;15.064;2023-03-31T07:28:31;2.80;;;2.33;;
4794;SDS011;2411;47.060;15.064;2023-03-31T07:30:59;2.30;;;2.10;;
4794;SDS011;2411;47.060;15.064;2023-03-31T07:33:26;2.57;;;2.10;;
4794;SDS011;2411;47.060;15.064;2023-03-31T07:35:53;1.90;;;1.80;;
4794;SDS011;2411;47.060;15.064;2023-03-31T07:38:38;2.00;;;1.90;;
4794;SDS011;2411;47.060;15.064;2023-03-31T07:41:08;1.17;;;1.07;;
4794;SDS011;2411;47.060;15.064;2023-03-31T07:43:37;1.50;;;1.27;;
4794;SDS011;2411;47.060;15.064;2023-03-31T07:46:05;1.40;;;1.30;;
4794;SDS011;2411;47.060;15.064;2023-03-31T07:48:34;2.40;;;1.70;;
4794;SDS011;2411;47.060;15.064;2023-03-31T07:51:01;1.90;;;1.10;;
4794;SDS011;2411;47.060;15.064;2023-03-31T07:53:28;1.47;;;1.23;;
4794;SDS011;2411;47.060;15.064;2023-03-31T07:55:56;1.20;;;1.20;;
4794;SDS011;2411;47.060;15.064;2023-03-31T07:58:23;1.20;;;1.20;;
4794;SDS011;2411;47.060;15.064;2023-03-31T08:00:51;1.80;;;1.57;;
4794;SDS011;2411;47.060;15.064;2023-03-31T08:03:18;1.60;;;1.30;;
4794;SDS011;2411;47.060;15.064;2023-03-31T08:05:45;1.50;;;1.20;;
4794;SDS011;2411;47.060;15.064;2023-03-31T08:08:12;1.50;;;1.40;;
4794;SDS011;2411;47.060;15.064;2023-03-31T08:10:39;2.00;;;1.30;;
4794;SDS011;2411;47.060;15.064;2023-03-31T08:13:06;1.83;;;1.23;;
4794;SDS011;2411;47.060;15.064;2023-03-31T08:15:33;1.30;;;1.30;;
4794;SDS011;2411;47.060;15.064;2023-03-31T08:18:01;0.90;;;0.90;;
4794;SDS011;2411;47.060;15.064;2023-03-31T08:20:30;2.63;;;1.00;;
4794;SDS011;2411;47.060;15.064;2023-03-31T08:22:58;1.17;;;0.90;;
4794;SDS011;2411;47.060;15.064;2023-03-31T08:25:25;4.20;;;1.30;;
4794;SDS011;2411;47.060;15.064;2023-03-31T08:27:53;0.90;;;0.90;;
4794;SDS011;2411;47.060;15.064;2023-03-31T08:30:21;0.70;;;0.70;;
4794;SDS011;2411;47.060;15.064;2023-03-31T08:32:49;2.53;;;0.97;;
4794;SDS011;2411;47.060;15.064;2023-03-31T08:35:16;0.90;;;0.90;;
4794;SDS011;2411;47.060;15.064;2023-03-31T08:37:43;1.07;;;0.87;;
4794;SDS011;2411;47.060;15.064;2023-03-31T08:40:15;1.20;;;1.20;;
4794;SDS011;2411;47.060;15.064;2023-03-31T08:42:50;0.80;;;0.80;;
4794;SDS011;2411;47.060;15.064;2023-03-31T08:45:31;1.10;;;1.00;;
4794;SDS011;2411;47.060;15.064;2023-03-31T08:51:05;1.40;;;1.30;;
4794;SDS011;2411;47.060;15.064;2023-03-31T08:53:40;1.03;;;0.90;;
4794;SDS011;2411;47.060;15.064;2023-03-31T08:56:16;3.03;;;1.00;;
4794;SDS011;2411;47.060;15.064;2023-03-31T08:58:47;1.60;;;0.90;;
4794;SDS011;2411;47.060;15.064;2023-03-31T09:07:11;1.17;;;1.00;;
4794;SDS011;2411;47.060;15.064;2023-03-31T09:15:41;2.80;;;1.10;;
4794;SDS011;2411;47.060;15.064;2023-03-31T09:18:20;2.50;;;1.20;;
4794;SDS011;2411;47.060;15.064;2023-03-31T09:23:35;2.50;;;1.40;;
4794;SDS011;2411;47.060;15.064;2023-03-31T09:26:24;1.30;;;1.20;;
4794;SDS011;2411;47.060;15.064;2023-03-31T09:28:57;1.37;;;1.10;;
4794;SDS011;2411;47.060;15.064;2023-03-31T09:31:26;1.50;;;1.40;;
4794;SDS011;2411;47.060;15.064;2023-03-31T09:33:56;1.17;;;1.10;;
4794;SDS011;2411;47.060;15.064;2023-03-31T09:36:27;2.40;;;1.60;;
4794;SDS011;2411;47.060;15.064;2023-03-31T09:38:54;1.23;;;1.23;;
4794;SDS011;2411;47.060;15.064;2023-03-31T09:41:21;1.27;;;1.17;;
4794;SDS011;2411;47.060;15.064;2023-03-31T09:43:48;0.97;;;0.97;;
4794;SDS011;2411;47.060;15.064;2023-03-31T09:46:24;4.33;;;2.27;;
4794;SDS011;2411;47.060;15.064;2023-03-31T09:51:41;1.03;;;1.03;;
4794;SDS011;2411;47.060;15.064;2023-03-31T09:54:14;1.17;;;1.10;;
4794;SDS011;2411;47.060;15.064;2023-03-31T09:56:48;2.20;;;1.60;;
4794;SDS011;2411;47.060;15.064;2023-03-31T09:59:20;4.40;;;1.27;;
4794;SDS011;2411;47.060;15.064;2023-03-31T10:01:59;1.00;;;1.00;;
4794;SDS011;2411;47.060;15.064;2023-03-31T10:04:29;1.10;;;1.10;;
4794;SDS011;2411;47.060;15.064;2023-03-31T10:06:59;1.40;;;1.30;;
4794;SDS011;2411;47.060;15.064;2023-03-31T10:09:29;1.30;;;1.20;;
4794;SDS011;2411;47.060;15.064;2023-03-31T10:12:03;1.30;;;1.20;;
4794;SDS011;2411;47.060;15.064;2023-03-31T10:14:38;3.60;;;1.43;;
4794;SDS011;2411;47.060;15.064;2023-03-31T10:17:05;1.83;;;1.07;;
4794;SDS011;2411;47.060;15.064;2023-03-31T10:19:34;2.30;;;1.50;;
4794;SDS011;2411;47.060;15.064;2023-03-31T10:22:04;3.60;;;1.27;;
4794;SDS011;2411;47.060;15.064;2023-03-31T10:24:44;1.10;;;1.10;;
4794;SDS011;2411;47.060;15.064;2023-03-31T10:27:22;1.67;;;0.90;;
4794;SDS011;2411;47.060;15.064;2023-03-31T10:29:51;1.40;;;1.00;;
4794;SDS011;2411;47.060;15.064;2023-03-31T10:32:27;1.73;;;0.97;;
4794;SDS011;2411;47.060;15.064;2023-03-31T10:37:48;2.40;;;1.67;;
4794;SDS011;2411;47.060;15.064;2023-03-31T10:42:57;3.10;;;1.57;;
4794;SDS011;2411;47.060;15.064;2023-03-31T10:45:52;1.50;;;1.40;;
4794;SDS011;2411;47.060;15.064;2023-03-31T10:48:26;4.77;;;1.57;;
4794;SDS011;2411;47.060;15.064;2023-03-31T10:53:40;2.50;;;1.10;;
4794;SDS011;2411;47.060;15.064;2023-03-31T11:16:05;1.73;;;1.10;;
4794;SDS011;2411;47.060;15.064;2023-03-31T11:19:59;1.43;;;1.33;;
4794;SDS011;2411;47.060;15.064;2023-03-31T11:27:49;1.43;;;1.33;;
4794;SDS011;2411;47.060;15.064;2023-03-31T11:30:29;1.20;;;1.10;;
4794;SDS011;2411;47.060;15.064;2023-03-31T11:33:16;2.73;;;0.97;;
4794;SDS011;2411;47.060;15.064;2023-03-31T11:41:30;1.73;;;1.63;;
4794;SDS011;2411;47.060;15.064;2023-03-31T11:44:03;1.43;;;1.07;;
4794;SDS011;2411;47.060;15.064;2023-03-31T11:49:36;1.13;;;1.03;;
4794;SDS011;2411;47.060;15.064;2023-03-31T11:52:14;2.20;;;1.00;;
4794;SDS011;2411;47.060;15.064;2023-03-31T11:57:24;2.87;;;1.10;;
4794;SDS011;2411;47.060;15.064;2023-03-31T12:00:08;2.43;;;1.30;;
4794;SDS011;2411;47.060;15.064;2023-03-31T12:05:47;1.33;;;1.23;;
4794;SDS011;2411;47.060;15.064;2023-03-31T12:11:01;1.77;;;1.40;;
4794;SDS011;2411;47.060;15.064;2023-03-31T12:13:35;1.70;;;1.10;;
4794;SDS011;2411;47.060;15.064;2023-03-31T12:16:27;1.63;;;1.20;;
4794;SDS011;2411;47.060;15.064;2023-03-31T12:19:31;1.20;;;1.10;;
4794;SDS011;2411;47.060;15.064;2023-03-31T12:22:25;2.60;;;1.10;;
4794;SDS011;2411;47.060;15.064;2023-03-31T12:24:53;3.77;;;1.47;;
4794;SDS011;2411;47.060;15.064;2023-03-31T12:32:45;1.00;;;1.00;;
4794;SDS011;2411;47.060;15.064;2023-03-31T12:41:44;1.23;;;1.23;;
4794;SDS011;2411;47.060;15.064;2023-03-31T12:50:52;2.03;;;1.50;;
4794;SDS011;2411;47.060;15.064;2023-03-31T12:56:26;2.77;;;1.40;;
4794;SDS011;2411;47.060;15.064;2023-03-31T12:58:53;1.37;;;1.07;;
4794;SDS011;2411;47.060;15.064;2023-03-31T13:01:21;1.57;;;1.27;;
4794;SDS011;2411;47.060;15.064;2023-03-31T13:03:50;1.23;;;1.17;;
4794;SDS011;2411;47.060;15.064;2023-03-31T13:09:04;1.40;;;1.20;;
4794;SDS011;2411;47.060;15.064;2023-03-31T13:11:51;3.97;;;1.30;;
4794;SDS011;2411;47.060;15.064;2023-03-31T13:14:19;1.43;;;1.30;;
4794;SDS011;2411;47.060;15.064;2023-03-31T13:16:52;1.33;;;1.23;;
4794;SDS011;2411;47.060;15.064;2023-03-31T13:19:36;1.10;;;1.10;;
4794;SDS011;2411;47.060;15.064;2023-03-31T13:22:26;1.73;;;1.27;;
4794;SDS011;2411;47.060;15.064;2023-03-31T13:25:08;2.37;;;1.40;;
4794;SDS011;2411;47.060;15.064;2023-03-31T13:27:57;1.60;;;1.50;;
4794;SDS011;2411;47.060;15.064;2023-03-31T13:30:57;3.50;;;1.50;;
4794;SDS011;2411;47.060;15.064;2023-03-31T13:39:02;2.00;;;1.77;;
4794;SDS011;2411;47.060;15.064;2023-03-31T14:07:11;3.60;;;1.93;;
4794;SDS011;2411;47.060;15.064;2023-03-31T14:09:44;2.33;;;1.23;;
4794;SDS011;2411;47.060;15.064;2023-03-31T14:12:24;1.93;;;1.47;;
4794;SDS011;2411;47.060;15.064;2023-03-31T14:15:00;3.13;;;1.87;;
4794;SDS011;2411;47.060;15.064;2023-03-31T14:17:31;3.80;;;1.50;;
4794;SDS011;2411;47.060;15.064;2023-03-31T14:26:51;1.53;;;1.43;;
4794;SDS011;2411;47.060;15.064;2023-03-31T14:29:14;4.60;;;2.23;;
4794;SDS011;2411;47.060;15.064;2023-03-31T14:35:12;1.83;;;1.73;;
4794;SDS011;2411;47.060;15.064;2023-03-31T14:37:54;1.60;;;1.50;;
4794;SDS011;2411;47.060;15.064;2023-03-31T14:40:22;1.67;;;1.43;;
4794;SDS011;2411;47.060;15.064;2023-03-31T14:42:50;2.50;;;1.87;;
4794;SDS011;2411;47.060;15.064;2023-03-31T14:45:19;2.30;;;1.50;;
4794;SDS011;2411;47.060;15.064;2023-03-31T14:50:28;3.63;;;1.90;;
4794;SDS011;2411;47.060;15.064;2023-03-31T14:52:59;3.40;;;1.90;;
4794;SDS011;2411;47.060;15.064;2023-03-31T14:55:28;1.57;;;1.43;;
4794;SDS011;2411;47.060;15.064;2023-03-31T14:58:22;1.60;;;1.50;;
4794;SDS011;2411;47.060;15.064;2023-03-31T15:01:04;5.83;;;2.03;;
4794;SDS011;2411;47.060;15.064;2023-03-31T15:03:34;2.07;;;1.43;;
4794;SDS011;2411;47.060;15.064;2023-03-31T15:06:07;2.20;;;1.73;;
4794;SDS011;2411;47.060;15.064;2023-03-31T15:08:35;5.03;;;1.80;;
4794;SDS011;2411;47.060;15.064;2023-03-31T15:11:04;1.70;;;1.60;;
4794;SDS011;2411;47.060;15.064;2023-03-31T15:13:49;3.10;;;1.90;;
4794;SDS011;2411;47.060;15.064;2023-03-31T15:16:40;1.80;;;1.73;;
4794;SDS011;2411;47.060;15.064;2023-03-31T15:19:25;2.30;;;2.10;;
4794;SDS011;2411;47.060;15.064;2023-03-31T15:22:15;2.10;;;1.93;;
4794;SDS011;2411;47.060;15.064;2023-03-31T15:24:46;2.77;;;2.40;;
4794;SDS011;2411;47.060;15.064;2023-03-31T15:27:31;2.33;;;2.13;;
4794;SDS011;2411;47.060;15.064;2023-03-31T15:30:07;2.93;;;2.33;;
4794;SDS011;2411;47.060;15.064;2023-03-31T15:32:40;2.40;;;2.23;;
4794;SDS011;2411;47.060;15.064;2023-03-31T15:35:21;2.13;;;1.80;;
4794;SDS011;2411;47.060;15.064;2023-03-31T15:37:58;2.40;;;1.57;;
4794;SDS011;2411;47.060;15.064;2023-03-31T15:40:28;2.37;;;1.90;;
4794;SDS011;2411;47.060;15.064;2023-03-31T15:43:07;2.70;;;1.50;;
4794;SDS011;2411;47.060;15.064;2023-03-31T15:45:55;2.40;;;2.17;;
4794;SDS011;2411;47.060;15.064;2023-03-31T15:48:33;2.60;;;2.10;;
4794;SDS011;2411;47.060;15.064;2023-03-31T15:51:19;2.00;;;1.90;;
4794;SDS011;2411;47.060;15.064;2023-03-31T15:53:58;2.37;;;1.57;;
4794;SDS011;2411;47.060;15.064;2023-03-31T15:56:29;1.80;;;1.70;;
4794;SDS011;2411;47.060;15.064;2023-03-31T15:59:05;1.90;;;1.80;;
4794;SDS011;2411;47.060;15.064;2023-03-31T16:02:09;1.60;;;1.50;;
4794;SDS011;2411;47.060;15.064;2023-03-31T16:04:39;2.00;;;1.50;;
4794;SDS011;2411;47.060;15.064;2023-03-31T16:07:08;1.37;;;1.10;;
4794;SDS011;2411;47.060;15.064;2023-03-31T16:09:59;1.20;;;1.10;;
4794;SDS011;2411;47.060;15.064;2023-03-31T16:12:37;1.20;;;1.10;;
4794;SDS011;2411;47.060;15.064;2023-03-31T16:15:09;2.33;;;2.00;;
4794;SDS011;2411;47.060;15.064;2023-03-31T16:17:41;1.90;;;1.43;;
4794;SDS011;2411;47.060;15.064;2023-03-31T16:20:30;1.77;;;1.50;;
4794;SDS011;2411;47.060;15.064;2023-03-31T16:23:10;1.43;;;1.30;;
4794;SDS011;2411;47.060;15.064;2023-03-31T16:25:40;1.97;;;1.30;;
4794;SDS011;2411;47.060;15.064;2023-03-31T16:28:12;1.20;;;1.10;;
4794;SDS011;2411;47.060;15.064;2023-03-31T16:30:48;1.20;;;1.20;;
4794;SDS011;2411;47.060;15.064;2023-03-31T16:33:16;1.23;;;1.10;;
4794;SDS011;2411;47.060;15.064;2023-03-31T16:35:52;1.30;;;1.20;;
4794;SDS011;2411;47.060;15.064;2023-03-31T16:38:22;1.93;;;1.47;;
4794;SDS011;2411;47.060;15.064;2023-03-31T16:40:55;1.40;;;1.30;;
4794;SDS011;2411;47.060;15.064;2023-03-31T16:43:27;1.83;;;1.73;;
4794;SDS011;2411;47.060;15.064;2023-03-31T16:46:00;4.90;;;2.97;;
4794;SDS011;2411;47.060;15.064;2023-03-31T16:48:31;1.53;;;0.80;;
4794;SDS011;2411;47.060;15.064;2023-03-31T16:51:00;2.20;;;0.80;;
4794;SDS011;2411;47.060;15.064;2023-03-31T16:53:29;0.80;;;0.80;;
4794;SDS011;2411;47.060;15.064;2023-03-31T16:55:59;0.70;;;0.70;;
4794;SDS011;2411;47.060;15.064;2023-03-31T16:58:27;0.80;;;0.80;;
4794;SDS011;2411;47.060;15.064;2023-03-31T17:00:55;2.57;;;0.60;;
4794;SDS011;2411;47.060;15.064;2023-03-31T17:03:23;0.60;;;0.60;;
4794;SDS011;2411;47.060;15.064;2023-03-31T17:05:51;0.60;;;0.60;;
4794;SDS011;2411;47.060;15.064;2023-03-31T17:08:41;5.43;;;0.80;;
4794;SDS011;2411;47.060;15.064;2023-03-31T17:11:10;1.10;;;1.00;;
4794;SDS011;2411;47.060;15.064;2023-03-31T17:13:40;1.03;;;0.67;;
4794;SDS011;2411;47.060;15.064;2023-03-31T17:16:09;1.20;;;0.97;;
4794;SDS011;2411;47.060;15.064;2023-03-31T17:18:40;0.80;;;0.80;;
4794;SDS011;2411;47.060;15.064;2023-03-31T17:21:11;1.37;;;1.30;;
4794;SDS011;2411;47.060;15.064;2023-03-31T17:23:40;1.93;;;1.83;;
4794;SDS011;2411;47.060;15.064;2023-03-31T17:26:08;2.90;;;2.67;;
4794;SDS011;2411;47.060;15.064;2023-03-31T17:28:38;4.23;;;3.47;;
4794;SDS011;2411;47.060;15.064;2023-03-31T17:31:13;1.37;;;1.30;;
4794;SDS011;2411;47.060;15.064;2023-03-31T17:33:45;0.97;;;0.90;;
4794;SDS011;2411;47.060;15.064;2023-03-31T17:36:12;2.30;;;2.03;;
4794;SDS011;2411;47.060;15.064;2023-03-31T17:38:41;3.93;;;3.03;;
4794;SDS011;2411;47.060;15.064;2023-03-31T17:41:09;2.10;;;2.00;;
4794;SDS011;2411;47.060;15.064;2023-03-31T17:43:38;1.50;;;1.40;;
4794;SDS011;2411;47.060;15.064;2023-03-31T17:46:07;1.00;;;1.00;;
4794;SDS011;2411;47.060;15.064;2023-03-31T17:48:39;1.90;;;1.37;;
4794;SDS011;2411;47.060;15.064;2023-03-31T17:51:11;1.40;;;1.30;;
4794;SDS011;2411;47.060;15.064;2023-03-31T17:53:41;1.10;;;1.10;;
4794;SDS011;2411;47.060;15.064;2023-03-31T17:56:11;1.13;;;1.13;;
4794;SDS011;2411;47.060;15.064;2023-03-31T17:58:39;1.40;;;1.30;;
4794;SDS011;2411;47.060;15.064;2023-03-31T18:01:07;1.17;;;1.17;;
4794;SDS011;2411;47.060;15.064;2023-03-31T18:03:36;1.00;;;1.00;;
4794;SDS011;2411;47.060;15.064;2023-03-31T18:08:32;1.00;;;1.00;;
4794;SDS011;2411;47.060;15.064;2023-03-31T18:11:00;1.10;;;1.10;;
4794;SDS011;2411;47.060;15.064;2023-03-31T18:13:30;1.57;;;1.10;;
4794;SDS011;2411;47.060;15.064;2023-03-31T18:16:00;0.90;;;0.90;;
4794;SDS011;2411;47.060;15.064;2023-03-31T18:18:28;1.73;;;1.63;;
4794;SDS011;2411;47.060;15.064;2023-03-31T18:20:55;1.30;;;1.10;;
4794;SDS011;2411;47.060;15.064;2023-03-31T18:23:22;2.60;;;1.60;;
4794;SDS011;2411;47.060;15.064;2023-03-31T18:25:49;2.83;;;1.80;;
4794;SDS011;2411;47.060;15.064;2023-03-31T18:28:17;1.80;;;1.20;;
4794;SDS011;2411;47.060;15.064;2023-03-31T18:30:46;1.20;;;1.10;;
4794;SDS011;2411;47.060;15.064;2023-03-31T18:33:13;1.40;;;1.30;;